sensor_id;sensor_type;location;lat;lon;timestamp;pressure;altitude;pressure_sealevel;temperature;humidity
60715;BME280;46564;53.096;8.246;2023-04-07T00:02:18;101436.13;;;6.68;70.19
60715;BME280;46564;53.096;8.246;2023-04-07T00:07:20;101432.31;;;6.60;70.63
60715;BME280;46564;53.096;8.246;2023-04-07T00:12:21;101427.00;;;6.57;70.96
60715;BME280;46564;53.096;8.246;2023-04-07T00:17:23;101431.00;;;6.50;71.62
60715;BME280;46564;53.096;8.246;2023-04-07T00:22:24;101418.22;;;6.35;71.71
60715;BME280;46564;53.096;8.246;2023-04-07T00:27:26;101426.41;;;6.23;71.86
60715;BME280;46564;53.096;8.246;2023-04-07T00:32:27;101431.72;;;6.07;71.85
60715;BME280;46564;53.096;8.246;2023-04-07T00:37:29;101427.78;;;5.97;72.37
60715;BME280;46564;53.096;8.246;2023-04-07T00:42:32;101427.34;;;5.88;73.12
60715;BME280;46564;53.096;8.246;2023-04-07T00:47:33;101427.66;;;5.76;73.57
60715;BME280;46564;53.096;8.246;2023-04-07T00:52:36;101409.19;;;5.70;74.14
60715;BME280;46564;53.096;8.246;2023-04-07T00:57:37;101412.38;;;5.64;74.36
60715;BME280;46564;53.096;8.246;2023-04-07T01:02:56;101414.75;;;5.59;74.53
60715;BME280;46564;53.096;8.246;2023-04-07T01:08:07;101415.34;;;5.54;74.80
60715;BME280;46564;53.096;8.246;2023-04-07T01:13:22;101422.03;;;5.48;75.18
60715;BME280;46564;53.096;8.246;2023-04-07T01:18:34;101414.84;;;5.43;74.94
60715;BME280;46564;53.096;8.246;2023-04-07T01:24:13;101414.84;;;5.43;74.80
60715;BME280;46564;53.096;8.246;2023-04-07T01:29:36;101414.91;;;5.44;74.60
60715;BME280;46564;53.096;8.246;2023-04-07T01:34:39;101418.50;;;5.46;74.48
60715;BME280;46564;53.096;8.246;2023-04-07T01:39:42;101418.50;;;5.46;74.35
60715;BME280;46564;53.096;8.246;2023-04-07T01:44:44;101419.22;;;5.44;74.36
60715;BME280;46564;53.096;8.246;2023-04-07T01:49:47;101416.56;;;5.42;74.24
60715;BME280;46564;53.096;8.246;2023-04-07T01:54:50;101425.88;;;5.39;74.12
60715;BME280;46564;53.096;8.246;2023-04-07T01:59:52;101419.53;;;5.32;74.05
60715;BME280;46564;53.096;8.246;2023-04-07T02:05:00;101420.03;;;5.25;73.81
60715;BME280;46564;53.096;8.246;2023-04-07T02:10:09;101422.47;;;5.22;73.27
60715;BME280;46564;53.096;8.246;2023-04-07T02:15:14;101413.44;;;5.13;72.31
60715;BME280;46564;53.096;8.246;2023-04-07T02:20:17;101415.06;;;5.11;71.91
60715;BME280;46564;53.096;8.246;2023-04-07T02:25:28;101415.81;;;5.09;71.27
60715;BME280;46564;53.096;8.246;2023-04-07T02:30:30;101411.50;;;5.09;70.96
60715;BME280;46564;53.096;8.246;2023-04-07T02:35:32;101422.38;;;5.02;70.82
60715;BME280;46564;53.096;8.246;2023-04-07T02:40:35;101424.69;;;4.96;70.24
60715;BME280;46564;53.096;8.246;2023-04-07T02:45:37;101420.06;;;4.90;70.12
60715;BME280;46564;53.096;8.246;2023-04-07T02:50:38;101420.41;;;4.80;69.90
60715;BME280;46564;53.096;8.246;2023-04-07T02:55:42;101414.28;;;4.78;69.96
60715;BME280;46564;53.096;8.246;2023-04-07T03:00:43;101433.81;;;4.71;69.97
60715;BME280;46564;53.096;8.246;2023-04-07T03:05:49;101420.44;;;4.64;69.91
60715;BME280;46564;53.096;8.246;2023-04-07T03:10:51;101421.19;;;4.61;69.83
60715;BME280;46564;53.096;8.246;2023-04-07T03:15:58;101418.53;;;4.59;69.46
60715;BME280;46564;53.096;8.246;2023-04-07T03:21:05;101420.06;;;4.56;69.63
60715;BME280;46564;53.096;8.246;2023-04-07T03:26:07;101415.84;;;4.58;69.55
60715;BME280;46564;53.096;8.246;2023-04-07T03:31:12;101424.69;;;4.62;69.46
60715;BME280;46564;53.096;8.246;2023-04-07T03:36:14;101416.91;;;4.62;69.37
60715;BME280;46564;53.096;8.246;2023-04-07T03:41:15;101415.09;;;4.60;69.28
60715;BME280;46564;53.096;8.246;2023-04-07T03:46:18;101417.63;;;4.59;69.14
60715;BME280;46564;53.096;8.246;2023-04-07T03:51:21;101422.72;;;4.57;68.98
60715;BME280;46564;53.096;8.246;2023-04-07T03:56:27;101431.06;;;4.52;69.12
60715;BME280;46564;53.096;8.246;2023-04-07T04:01:31;101422.19;;;4.47;69.03
60715;BME280;46564;53.096;8.246;2023-04-07T04:06:40;101417.63;;;4.42;68.56
60715;BME280;46564;53.096;8.246;2023-04-07T04:12:16;101433.78;;;4.37;68.53
60715;BME280;46564;53.096;8.246;2023-04-07T04:17:33;101439.38;;;4.28;68.52
60715;BME280;46564;53.096;8.246;2023-04-07T04:22:37;101440.09;;;4.25;68.44
60715;BME280;46564;53.096;8.246;2023-04-07T04:27:40;101444.16;;;4.20;68.35
60715;BME280;46564;53.096;8.246;2023-04-07T04:32:50;101442.91;;;4.14;68.52
60715;BME280;46564;53.096;8.246;2023-04-07T04:37:56;101450.63;;;4.12;68.67
60715;BME280;46564;53.096;8.246;2023-04-07T04:42:58;101456.34;;;4.06;68.77
60715;BME280;46564;53.096;8.246;2023-04-07T04:48:00;101466.63;;;4.05;68.51
60715;BME280;46564;53.096;8.246;2023-04-07T04:53:02;101464.03;;;4.05;68.96
60715;BME280;46564;53.096;8.246;2023-04-07T04:58:04;101468.44;;;4.06;68.79
60715;BME280;46564;53.096;8.246;2023-04-07T05:03:17;101475.31;;;4.05;69.02
60715;BME280;46564;53.096;8.246;2023-04-07T05:08:24;101480.50;;;4.05;68.86
60715;BME280;46564;53.096;8.246;2023-04-07T05:13:25;101490.88;;;4.05;68.93
60715;BME280;46564;53.096;8.246;2023-04-07T05:18:29;101497.47;;;4.00;69.20
60715;BME280;46564;53.096;8.246;2023-04-07T05:23:32;101505.00;;;3.96;69.14
60715;BME280;46564;53.096;8.246;2023-04-07T05:28:34;101497.69;;;3.88;69.00
60715;BME280;46564;53.096;8.246;2023-04-07T05:33:39;101513.16;;;3.87;68.86
60715;BME280;46564;53.096;8.246;2023-04-07T05:38:41;101515.41;;;3.81;68.80
60715;BME280;46564;53.096;8.246;2023-04-07T05:43:47;101515.25;;;3.78;68.78
60715;BME280;46564;53.096;8.246;2023-04-07T05:48:50;101511.69;;;3.61;68.45
60715;BME280;46564;53.096;8.246;2023-04-07T05:53:53;101522.94;;;3.61;68.59
60715;BME280;46564;53.096;8.246;2023-04-07T05:58:57;101522.78;;;3.58;68.62
60715;BME280;46564;53.096;8.246;2023-04-07T06:04:00;101534.00;;;3.59;68.46
60715;BME280;46564;53.096;8.246;2023-04-07T06:09:03;101535.28;;;3.65;68.71
60715;BME280;46564;53.096;8.246;2023-04-07T06:14:08;101539.56;;;3.65;68.68
60715;BME280;46564;53.096;8.246;2023-04-07T06:19:10;101545.09;;;3.71;68.80
60715;BME280;46564;53.096;8.246;2023-04-07T06:24:11;101552.56;;;3.81;68.70
60715;BME280;46564;53.096;8.246;2023-04-07T06:29:13;101553.81;;;3.88;68.83
60715;BME280;46564;53.096;8.246;2023-04-07T06:34:15;101556.28;;;4.01;68.93
60715;BME280;46564;53.096;8.246;2023-04-07T06:39:17;101562.16;;;4.14;68.85
60715;BME280;46564;53.096;8.246;2023-04-07T06:44:19;101571.25;;;4.22;68.79
60715;BME280;46564;53.096;8.246;2023-04-07T06:49:20;101567.09;;;4.40;68.72
60715;BME280;46564;53.096;8.246;2023-04-07T06:54:22;101575.84;;;4.59;68.79
60715;BME280;46564;53.096;8.246;2023-04-07T06:59:24;101573.91;;;4.71;68.53
60715;BME280;46564;53.096;8.246;2023-04-07T07:04:25;101582.69;;;4.90;68.27
60715;BME280;46564;53.096;8.246;2023-04-07T07:09:27;101597.09;;;5.18;68.02
60715;BME280;46564;53.096;8.246;2023-04-07T07:14:28;101600.16;;;6.32;67.38
60715;BME280;46564;53.096;8.246;2023-04-07T07:19:30;101609.28;;;7.38;65.44
60715;BME280;46564;53.096;8.246;2023-04-07T07:24:32;101613.19;;;8.11;63.80
60715;BME280;46564;53.096;8.246;2023-04-07T07:29:34;101615.72;;;8.30;62.11
60715;BME280;46564;53.096;8.246;2023-04-07T07:34:35;101631.94;;;8.44;60.88
60715;BME280;46564;53.096;8.246;2023-04-07T07:39:37;101634.91;;;8.54;59.93
60715;BME280;46564;53.096;8.246;2023-04-07T07:44:39;101640.25;;;9.03;59.49
60715;BME280;46564;53.096;8.246;2023-04-07T07:49:40;101643.00;;;9.81;58.75
60715;BME280;46564;53.096;8.246;2023-04-07T07:54:42;101640.88;;;9.96;57.75
60715;BME280;46564;53.096;8.246;2023-04-07T07:59:43;101652.06;;;10.43;56.97
60715;BME280;46564;53.096;8.246;2023-04-07T08:04:46;101645.44;;;10.02;56.53
60715;BME280;46564;53.096;8.246;2023-04-07T08:09:48;101644.72;;;10.06;56.43
60715;BME280;46564;53.096;8.246;2023-04-07T08:14:50;101646.63;;;10.66;56.00
60715;BME280;46564;53.096;8.246;2023-04-07T08:19:51;101645.69;;;11.23;54.93
60715;BME280;46564;53.096;8.246;2023-04-07T08:24:53;101648.63;;;11.36;53.51
60715;BME280;46564;53.096;8.246;2023-04-07T08:29:59;101647.84;;;11.08;52.80
60715;BME280;46564;53.096;8.246;2023-04-07T08:35:01;101657.47;;;10.78;52.80
60715;BME280;46564;53.096;8.246;2023-04-07T08:40:03;101643.16;;;10.67;53.34
60715;BME280;46564;53.096;8.246;2023-04-07T08:45:06;101643.16;;;10.67;53.34
60715;BME280;46564;53.096;8.246;2023-04-07T08:50:10;101643.16;;;10.67;53.34
60715;BME280;46564;53.096;8.246;2023-04-07T08:55:12;101656.38;;;12.31;52.02
60715;BME280;46564;53.096;8.246;2023-04-07T09:00:14;101668.13;;;12.11;51.18
60715;BME280;46564;53.096;8.246;2023-04-07T09:05:16;101672.25;;;12.01;50.03
60715;BME280;46564;53.096;8.246;2023-04-07T09:10:17;101662.75;;;12.43;48.82
60715;BME280;46564;53.096;8.246;2023-04-07T09:15:20;101675.41;;;12.23;47.62
60715;BME280;46564;53.096;8.246;2023-04-07T09:20:22;101679.56;;;12.14;46.77
60715;BME280;46564;53.096;8.246;2023-04-07T09:25:24;101690.63;;;12.01;46.44
60715;BME280;46564;53.096;8.246;2023-04-07T09:30:32;101677.81;;;12.13;46.35
60715;BME280;46564;53.096;8.246;2023-04-07T09:35:50;101676.66;;;12.37;45.92
60715;BME280;46564;53.096;8.246;2023-04-07T09:41:07;101679.53;;;12.87;45.65
60715;BME280;46564;53.096;8.246;2023-04-07T09:46:15;101679.59;;;12.90;44.66
60715;BME280;46564;53.096;8.246;2023-04-07T09:51:16;101676.03;;;12.88;44.24
60715;BME280;46564;53.096;8.246;2023-04-07T09:56:20;101668.88;;;13.24;43.76
60715;BME280;46564;53.096;8.246;2023-04-07T10:01:24;101678.09;;;13.02;43.21
60715;BME280;46564;53.096;8.246;2023-04-07T10:06:26;101682.59;;;13.50;42.96
60715;BME280;46564;53.096;8.246;2023-04-07T10:11:28;101681.66;;;12.64;42.02
60715;BME280;46564;53.096;8.246;2023-04-07T10:16:29;101681.38;;;12.53;42.14
60715;BME280;46564;53.096;8.246;2023-04-07T10:21:37;101683.06;;;12.50;42.10
60715;BME280;46564;53.096;8.246;2023-04-07T10:26:39;101696.59;;;13.06;42.46
60715;BME280;46564;53.096;8.246;2023-04-07T10:31:42;101691.09;;;12.96;42.08
60715;BME280;46564;53.096;8.246;2023-04-07T10:37:07;101694.72;;;13.01;41.60
60715;BME280;46564;53.096;8.246;2023-04-07T10:53:08;101705.94;;;13.79;40.73
60715;BME280;46564;53.096;8.246;2023-04-07T11:03:17;101709.47;;;14.30;40.71
60715;BME280;46564;53.096;8.246;2023-04-07T11:08:39;101714.09;;;14.45;40.37
60715;BME280;46564;53.096;8.246;2023-04-07T11:13:46;101714.75;;;14.31;39.79
60715;BME280;46564;53.096;8.246;2023-04-07T11:18:48;101725.00;;;14.13;39.66
60715;BME280;46564;53.096;8.246;2023-04-07T11:23:51;101723.03;;;13.55;39.49
60715;BME280;46564;53.096;8.246;2023-04-07T11:28:54;101711.88;;;14.16;40.08
60715;BME280;46564;53.096;8.246;2023-04-07T11:34:01;101724.94;;;14.63;39.41
60715;BME280;46564;53.096;8.246;2023-04-07T11:39:03;101721.81;;;14.34;39.08
60715;BME280;46564;53.096;8.246;2023-04-07T11:44:07;101725.81;;;14.62;39.47
60715;BME280;46564;53.096;8.246;2023-04-07T11:49:11;101720.31;;;14.50;39.12
60715;BME280;46564;53.096;8.246;2023-04-07T11:54:13;101726.81;;;14.71;39.11
60715;BME280;46564;53.096;8.246;2023-04-07T11:59:21;101731.75;;;14.50;38.66
60715;BME280;46564;53.096;8.246;2023-04-07T12:04:23;101734.75;;;14.74;38.49
60715;BME280;46564;53.096;8.246;2023-04-07T12:09:30;101732.84;;;14.63;38.87
60715;BME280;46564;53.096;8.246;2023-04-07T12:14:33;101734.13;;;14.90;38.58
60715;BME280;46564;53.096;8.246;2023-04-07T12:19:35;101730.56;;;14.85;38.04
60715;BME280;46564;53.096;8.246;2023-04-07T12:24:40;101734.03;;;14.84;37.99
60715;BME280;46564;53.096;8.246;2023-04-07T12:29:41;101740.50;;;14.48;37.73
60715;BME280;46564;53.096;8.246;2023-04-07T12:34:44;101733.47;;;14.48;38.25
60715;BME280;46564;53.096;8.246;2023-04-07T12:39:45;101737.22;;;15.23;38.38
60715;BME280;46564;53.096;8.246;2023-04-07T12:44:47;101734.97;;;15.55;38.22
60715;BME280;46564;53.096;8.246;2023-04-07T12:49:48;101744.00;;;15.77;37.90
60715;BME280;46564;53.096;8.246;2023-04-07T12:54:50;101735.94;;;15.63;38.07
60715;BME280;46564;53.096;8.246;2023-04-07T12:59:53;101744.75;;;15.65;37.39
60715;BME280;46564;53.096;8.246;2023-04-07T13:04:55;101736.63;;;15.45;37.37
60715;BME280;46564;53.096;8.246;2023-04-07T13:09:56;101740.94;;;15.42;37.43
60715;BME280;46564;53.096;8.246;2023-04-07T13:14:58;101743.66;;;15.45;37.31
60715;BME280;46564;53.096;8.246;2023-04-07T13:20:05;101745.13;;;15.23;37.25
60715;BME280;46564;53.096;8.246;2023-04-07T13:25:08;101740.06;;;15.41;37.48
60715;BME280;46564;53.096;8.246;2023-04-07T13:30:10;101738.59;;;15.65;37.42
60715;BME280;46564;53.096;8.246;2023-04-07T13:35:11;101740.56;;;15.11;37.02
60715;BME280;46564;53.096;8.246;2023-04-07T13:40:13;101739.97;;;15.32;37.11
60715;BME280;46564;53.096;8.246;2023-04-07T13:45:14;101746.75;;;15.14;36.69
60715;BME280;46564;53.096;8.246;2023-04-07T13:50:16;101746.72;;;15.10;36.85
60715;BME280;46564;53.096;8.246;2023-04-07T13:55:18;101740.38;;;15.64;37.31
60715;BME280;46564;53.096;8.246;2023-04-07T14:00:20;101747.22;;;15.50;37.22
60715;BME280;46564;53.096;8.246;2023-04-07T14:05:22;101734.53;;;15.18;36.89
60715;BME280;46564;53.096;8.246;2023-04-07T14:10:24;101736.06;;;15.03;37.26
60715;BME280;46564;53.096;8.246;2023-04-07T14:15:25;101734.41;;;15.09;37.32
60715;BME280;46564;53.096;8.246;2023-04-07T14:20:27;101741.97;;;14.85;37.35
60715;BME280;46564;53.096;8.246;2023-04-07T14:25:30;101734.00;;;14.81;37.73
60715;BME280;46564;53.096;8.246;2023-04-07T14:30:34;101738.63;;;14.97;37.95
60715;BME280;46564;53.096;8.246;2023-04-07T14:35:38;101741.31;;;15.00;37.95
60715;BME280;46564;53.096;8.246;2023-04-07T14:40:40;101743.09;;;15.01;37.86
60715;BME280;46564;53.096;8.246;2023-04-07T14:45:41;101744.06;;;15.08;38.13
60715;BME280;46564;53.096;8.246;2023-04-07T14:50:43;101750.50;;;14.67;37.74
60715;BME280;46564;53.096;8.246;2023-04-07T14:55:44;101745.88;;;14.56;38.14
60715;BME280;46564;53.096;8.246;2023-04-07T15:00:46;101754.19;;;14.79;38.20
60715;BME280;46564;53.096;8.246;2023-04-07T15:05:48;101757.56;;;14.70;38.02
60715;BME280;46564;53.096;8.246;2023-04-07T15:10:49;101769.66;;;14.60;38.10
60715;BME280;46564;53.096;8.246;2023-04-07T15:15:51;101768.44;;;14.37;38.17
60715;BME280;46564;53.096;8.246;2023-04-07T15:20:52;101764.47;;;14.63;38.42
60715;BME280;46564;53.096;8.246;2023-04-07T15:25:54;101768.06;;;14.67;38.58
60715;BME280;46564;53.096;8.246;2023-04-07T15:30:58;101764.16;;;14.45;38.66
60715;BME280;46564;53.096;8.246;2023-04-07T15:35:59;101774.78;;;14.51;38.51
60715;BME280;46564;53.096;8.246;2023-04-07T15:41:01;101783.59;;;14.53;38.33
60715;BME280;46564;53.096;8.246;2023-04-07T15:46:03;101784.09;;;14.30;38.30
60715;BME280;46564;53.096;8.246;2023-04-07T15:51:05;101791.25;;;14.38;38.42
60715;BME280;46564;53.096;8.246;2023-04-07T15:56:06;101795.34;;;14.19;38.22
60715;BME280;46564;53.096;8.246;2023-04-07T16:01:08;101806.31;;;13.97;37.95
60715;BME280;46564;53.096;8.246;2023-04-07T16:06:09;101813.50;;;14.06;38.44
60715;BME280;46564;53.096;8.246;2023-04-07T16:11:11;101805.78;;;14.15;38.27
60715;BME280;46564;53.096;8.246;2023-04-07T16:16:12;101817.81;;;13.58;38.17
60715;BME280;46564;53.096;8.246;2023-04-07T16:21:14;101824.44;;;13.81;38.48
60715;BME280;46564;53.096;8.246;2023-04-07T16:26:16;101823.91;;;13.54;38.58
60715;BME280;46564;53.096;8.246;2023-04-07T16:31:17;101819.28;;;13.07;38.57
60715;BME280;46564;53.096;8.246;2023-04-07T16:36:19;101825.34;;;13.03;38.85
60715;BME280;46564;53.096;8.246;2023-04-07T16:41:21;101829.31;;;12.86;38.63
60715;BME280;46564;53.096;8.246;2023-04-07T16:46:22;101835.75;;;12.99;39.04
60715;BME280;46564;53.096;8.246;2023-04-07T16:51:27;101843.38;;;12.88;38.88
60715;BME280;46564;53.096;8.246;2023-04-07T16:56:29;101843.66;;;12.64;38.62
60715;BME280;46564;53.096;8.246;2023-04-07T17:01:31;101843.66;;;12.64;38.62
60715;BME280;46564;53.096;8.246;2023-04-07T17:06:33;101848.03;;;12.30;38.89
60715;BME280;46564;53.096;8.246;2023-04-07T17:11:34;101861.75;;;12.19;39.40
60715;BME280;46564;53.096;8.246;2023-04-07T17:16:36;101866.88;;;11.84;39.83
60715;BME280;46564;53.096;8.246;2023-04-07T17:21:37;101869.03;;;11.69;40.35
60715;BME280;46564;53.096;8.246;2023-04-07T17:26:39;101874.66;;;11.53;40.71
60715;BME280;46564;53.096;8.246;2023-04-07T17:31:41;101881.00;;;11.30;41.31
60715;BME280;46564;53.096;8.246;2023-04-07T17:36:42;101892.50;;;11.08;41.88
60715;BME280;46564;53.096;8.246;2023-04-07T17:41:44;101898.09;;;10.92;42.50
60715;BME280;46564;53.096;8.246;2023-04-07T17:46:47;101906.25;;;10.75;42.80
60715;BME280;46564;53.096;8.246;2023-04-07T17:51:49;101910.88;;;10.57;43.38
60715;BME280;46564;53.096;8.246;2023-04-07T17:56:50;101928.63;;;10.41;43.85
60715;BME280;46564;53.096;8.246;2023-04-07T18:01:52;101931.50;;;10.25;44.26
60715;BME280;46564;53.096;8.246;2023-04-07T18:06:54;101940.59;;;10.11;44.78
60715;BME280;46564;53.096;8.246;2023-04-07T18:11:56;101945.22;;;9.95;44.89
60715;BME280;46564;53.096;8.246;2023-04-07T18:16:57;101951.31;;;9.71;45.52
60715;BME280;46564;53.096;8.246;2023-04-07T18:21:59;101961.94;;;9.53;45.75
60715;BME280;46564;53.096;8.246;2023-04-07T18:27:01;101968.94;;;9.33;46.07
60715;BME280;46564;53.096;8.246;2023-04-07T18:32:02;101973.59;;;9.19;46.30
60715;BME280;46564;53.096;8.246;2023-04-07T18:37:04;101979.16;;;9.06;47.03
60715;BME280;46564;53.096;8.246;2023-04-07T18:42:06;101995.88;;;8.90;48.03
60715;BME280;46564;53.096;8.246;2023-04-07T18:47:07;101999.91;;;8.62;49.30
60715;BME280;46564;53.096;8.246;2023-04-07T18:52:09;102001.41;;;8.38;50.78
60715;BME280;46564;53.096;8.246;2023-04-07T18:57:11;102013.56;;;8.19;51.79
60715;BME280;46564;53.096;8.246;2023-04-07T19:02:12;102022.34;;;8.02;52.77
60715;BME280;46564;53.096;8.246;2023-04-07T19:07:14;102032.03;;;7.86;53.64
60715;BME280;46564;53.096;8.246;2023-04-07T19:12:16;102044.78;;;7.80;54.54
60715;BME280;46564;53.096;8.246;2023-04-07T19:17:17;102047.44;;;7.64;55.37
60715;BME280;46564;53.096;8.246;2023-04-07T19:22:19;102042.94;;;7.43;56.28
60715;BME280;46564;53.096;8.246;2023-04-07T19:27:21;102054.56;;;7.32;57.26
60715;BME280;46564;53.096;8.246;2023-04-07T19:32:23;102061.91;;;7.22;57.98
60715;BME280;46564;53.096;8.246;2023-04-07T19:37:25;102055.66;;;7.02;59.35
60715;BME280;46564;53.096;8.246;2023-04-07T19:42:27;102066.75;;;6.98;60.21
60715;BME280;46564;53.096;8.246;2023-04-07T19:47:29;102070.41;;;6.85;61.35
60715;BME280;46564;53.096;8.246;2023-04-07T19:52:31;102078.38;;;6.72;62.20
60715;BME280;46564;53.096;8.246;2023-04-07T19:57:33;102086.50;;;6.62;63.06
60715;BME280;46564;53.096;8.246;2023-04-07T20:02:35;102087.91;;;6.55;64.06
60715;BME280;46564;53.096;8.246;2023-04-07T20:07:37;102094.13;;;6.42;64.86
60715;BME280;46564;53.096;8.246;2023-04-07T20:12:39;102107.44;;;6.32;65.60
60715;BME280;46564;53.096;8.246;2023-04-07T20:17:40;102106.13;;;6.24;66.26
60715;BME280;46564;53.096;8.246;2023-04-07T20:22:42;102115.84;;;6.11;66.89
60715;BME280;46564;53.096;8.246;2023-04-07T20:27:44;102110.75;;;5.98;67.85
60715;BME280;46564;53.096;8.246;2023-04-07T20:32:49;102117.09;;;5.88;68.25
60715;BME280;46564;53.096;8.246;2023-04-07T20:37:50;102117.25;;;5.76;68.72
60715;BME280;46564;53.096;8.246;2023-04-07T20:42:52;102119.34;;;5.67;69.30
60715;BME280;46564;53.096;8.246;2023-04-07T20:47:53;102119.16;;;5.64;69.78
60715;BME280;46564;53.096;8.246;2023-04-07T20:52:56;102128.22;;;5.56;70.12
60715;BME280;46564;53.096;8.246;2023-04-07T20:57:57;102126.16;;;5.50;70.29
60715;BME280;46564;53.096;8.246;2023-04-07T21:02:59;102128.47;;;5.30;71.09
60715;BME280;46564;53.096;8.246;2023-04-07T21:08:01;102140.44;;;5.13;71.83
60715;BME280;46564;53.096;8.246;2023-04-07T21:13:02;102144.44;;;5.08;72.43
60715;BME280;46564;53.096;8.246;2023-04-07T21:18:04;102149.53;;;5.07;72.92
60715;BME280;46564;53.096;8.246;2023-04-07T21:23:07;102146.00;;;4.91;73.36
60715;BME280;46564;53.096;8.246;2023-04-07T21:28:09;102143.72;;;4.83;74.25
60715;BME280;46564;53.096;8.246;2023-04-07T21:33:11;102146.13;;;4.80;74.33
60715;BME280;46564;53.096;8.246;2023-04-07T21:38:14;102155.94;;;4.70;75.31
60715;BME280;46564;53.096;8.246;2023-04-07T21:43:16;102151.34;;;4.66;75.07
60715;BME280;46564;53.096;8.246;2023-04-07T21:48:17;102145.59;;;4.57;75.59
60715;BME280;46564;53.096;8.246;2023-04-07T21:53:23;102149.47;;;4.50;75.87
60715;BME280;46564;53.096;8.246;2023-04-07T21:58:25;102161.75;;;4.39;76.37
60715;BME280;46564;53.096;8.246;2023-04-07T22:03:26;102158.00;;;4.34;76.49
60715;BME280;46564;53.096;8.246;2023-04-07T22:08:30;102161.19;;;4.30;77.04
60715;BME280;46564;53.096;8.246;2023-04-07T22:13:33;102167.38;;;4.19;77.13
60715;BME280;46564;53.096;8.246;2023-04-07T22:18:35;102168.97;;;4.17;77.83
60715;BME280;46564;53.096;8.246;2023-04-07T22:23:37;102171.34;;;4.14;77.88
60715;BME280;46564;53.096;8.246;2023-04-07T22:28:38;102177.75;;;4.05;78.33
60715;BME280;46564;53.096;8.246;2023-04-07T22:33:40;102188.97;;;3.93;78.53
60715;BME280;46564;53.096;8.246;2023-04-07T22:38:42;102186.19;;;3.89;78.91
60715;BME280;46564;53.096;8.246;2023-04-07T22:43:43;102182.06;;;3.80;79.29
60715;BME280;46564;53.096;8.246;2023-04-07T22:48:45;102194.03;;;3.78;79.62
60715;BME280;46564;53.096;8.246;2023-04-07T22:53:46;102193.81;;;3.75;79.82
60715;BME280;46564;53.096;8.246;2023-04-07T22:58:48;102207.16;;;3.67;80.32
60715;BME280;46564;53.096;8.246;2023-04-07T23:03:50;102206.16;;;3.65;80.64
60715;BME280;46564;53.096;8.246;2023-04-07T23:08:51;102208.97;;;3.68;81.24
60715;BME280;46564;53.096;8.246;2023-04-07T23:13:53;102200.78;;;3.62;81.57
60715;BME280;46564;53.096;8.246;2023-04-07T23:18:54;102207.16;;;3.67;81.81
60715;BME280;46564;53.096;8.246;2023-04-07T23:23:56;102206.00;;;3.76;81.97
60715;BME280;46564;53.096;8.246;2023-04-07T23:28:58;102194.03;;;3.78;82.26
60715;BME280;46564;53.096;8.246;2023-04-07T23:33:59;102211.19;;;3.76;82.61
60715;BME280;46564;53.096;8.246;2023-04-07T23:39:01;102207.56;;;3.74;82.84
60715;BME280;46564;53.096;8.246;2023-04-07T23:44:03;102204.88;;;3.72;82.87
60715;BME280;46564;53.096;8.246;2023-04-07T23:49:04;102208.97;;;3.68;83.28
60715;BME280;46564;53.096;8.246;2023-04-07T23:54:06;102205.38;;;3.66;83.52
60715;BME280;46564;53.096;8.246;2023-04-07T23:59:08;102207.16;;;3.67;83.78
